To NAV CANADA Home Page Login to a new session Search on AWWS site Feedback and Comments Disclaimer Vers la page française équivalente Tips FAQ What's new on the site To the Forecasts and Observations / NOTAM section To "File a Flight Plan" website Publications and other links Update of the User's profile FIC Telephone Numbers My Weather Data Folder Route Weather Data Regional Weather Data Local Weather Data To the Forecasts and Observations / NOTAM section
Request Generated 07/24/2016 at 20:24:35 UTC . Weather information available at that time is displayed.

METAR/TAF

EDMONTON INTL/AB    

METAR CYEG 242000Z 23009G15KT 200V280 15SM FEW060 FEW250 26/12 A2990
RMK CU1CI2 CU TR SLP127 DENSITY ALT 4100FT=
METAR CYEG 241900Z 22010G15KT 15SM FEW060 FEW120 FEW250 25/11 A2992
RMK CU1AC1CI2 CU TR AC TR SLP133 DENSITY ALT 4000FT=
METAR CYEG 241800Z 22009KT 15SM FEW120 SCT250 24/11 A2992 RMK ACC1CI2
SLP136 DENSITY ALT 3900FT=

TAF CYEG 241738Z 2418/2518 25008KT P6SM FEW100
BECMG 2422/2424 18010KT
FM250100 17008KT P6SM SCT050 BKN100 TEMPO 2501/2505 P6SM -SHRA
PROB30 2501/2505 VRB15G25KT 5SM TSRA OVC050CB
FM250500 17005KT P6SM FEW100
FM250900 28005KT P6SM SKC PROB30 2509/2512 3/4SM BR
FM251500 26005KT P6SM SCT080
RMK NXT FCST BY 242100Z=
Your time UTC time
Weather data provided by Environment Canada and NAV CANADA